sensor_id;sensor_type;location;lat;lon;timestamp;pressure;altitude;pressure_sealevel;temperature;humidity
74895;BME280;63447;49.446;8.666;2022-12-29T00:02:15;99922.66;;;10.60;61.85
74895;BME280;63447;49.446;8.666;2022-12-29T00:04:41;99915.84;;;10.58;61.57
74895;BME280;63447;49.446;8.666;2022-12-29T00:07:11;99895.53;;;10.62;62.05
74895;BME280;63447;49.446;8.666;2022-12-29T00:09:36;99912.28;;;10.69;61.49
74895;BME280;63447;49.446;8.666;2022-12-29T00:12:04;99910.47;;;10.73;61.87
74895;BME280;63447;49.446;8.666;2022-12-29T00:14:32;99901.59;;;10.68;61.84
74895;BME280;63447;49.446;8.666;2022-12-29T00:17:18;99906.00;;;10.81;61.33
74895;BME280;63447;49.446;8.666;2022-12-29T00:19:44;99893.44;;;10.71;61.22
74895;BME280;63447;49.446;8.666;2022-12-29T00:22:27;99907.81;;;10.77;61.95
74895;BME280;63447;49.446;8.666;2022-12-29T00:25:14;99892.06;;;10.77;62.01
74895;BME280;63447;49.446;8.666;2022-12-29T00:28:01;99883.91;;;10.69;61.79
74895;BME280;63447;49.446;8.666;2022-12-29T00:30:45;99901.59;;;10.68;62.16
74895;BME280;63447;49.446;8.666;2022-12-29T00:33:32;99905.97;;;10.69;62.50
74895;BME280;63447;49.446;8.666;2022-12-29T00:36:32;99897.94;;;10.64;61.90
74895;BME280;63447;49.446;8.666;2022-12-29T00:39:11;99886.53;;;10.53;62.37
74895;BME280;63447;49.446;8.666;2022-12-29T00:42:03;99894.94;;;10.69;61.91
74895;BME280;63447;49.446;8.666;2022-12-29T00:44:47;99888.28;;;10.58;62.05
74895;BME280;63447;49.446;8.666;2022-12-29T00:47:17;99897.94;;;10.64;62.68
74895;BME280;63447;49.446;8.666;2022-12-29T00:49:44;99896.31;;;10.63;62.46
74895;BME280;63447;49.446;8.666;2022-12-29T00:52:12;99875.84;;;10.51;62.21
74895;BME280;63447;49.446;8.666;2022-12-29T00:54:40;99887.25;;;10.62;62.35
74895;BME280;63447;49.446;8.666;2022-12-29T00:57:07;99884.84;;;10.61;62.14
74895;BME280;63447;49.446;8.666;2022-12-29T00:59:40;99895.28;;;10.67;62.23
74895;BME280;63447;49.446;8.666;2022-12-29T01:02:06;99894.84;;;10.65;61.96
74895;BME280;63447;49.446;8.666;2022-12-29T01:04:34;99907.13;;;10.68;62.66
74895;BME280;63447;49.446;8.666;2022-12-29T01:06:59;99901.50;;;10.76;62.10
74895;BME280;63447;49.446;8.666;2022-12-29T01:09:25;99885.50;;;10.58;62.67
74895;BME280;63447;49.446;8.666;2022-12-29T01:12:10;99899.31;;;10.82;62.11
74895;BME280;63447;49.446;8.666;2022-12-29T01:14:36;99913.44;;;10.93;62.05
74895;BME280;63447;49.446;8.666;2022-12-29T01:17:02;99914.50;;;10.88;62.27
74895;BME280;63447;49.446;8.666;2022-12-29T01:19:33;99908.06;;;10.84;63.01
74895;BME280;63447;49.446;8.666;2022-12-29T01:21:58;99905.28;;;10.96;63.20
74895;BME280;63447;49.446;8.666;2022-12-29T01:24:26;99910.69;;;10.93;63.48
74895;BME280;63447;49.446;8.666;2022-12-29T01:26:51;99888.16;;;11.03;64.08
74895;BME280;63447;49.446;8.666;2022-12-29T01:29:19;99894.81;;;11.14;63.81
74895;BME280;63447;49.446;8.666;2022-12-29T01:31:46;99892.41;;;11.12;63.31
74895;BME280;63447;49.446;8.666;2022-12-29T01:34:12;99894.47;;;11.15;63.24
74895;BME280;63447;49.446;8.666;2022-12-29T01:36:38;99890.31;;;11.09;63.12
74895;BME280;63447;49.446;8.666;2022-12-29T01:39:06;99894.91;;;11.17;63.78
74895;BME280;63447;49.446;8.666;2022-12-29T01:41:31;99898.94;;;11.20;63.87
74895;BME280;63447;49.446;8.666;2022-12-29T01:43:58;99903.88;;;11.27;64.71
74895;BME280;63447;49.446;8.666;2022-12-29T01:46:38;99901.56;;;11.29;65.34
74895;BME280;63447;49.446;8.666;2022-12-29T01:51:43;99883.50;;;11.31;66.21
74895;BME280;63447;49.446;8.666;2022-12-29T01:54:25;99887.25;;;11.51;66.58
74895;BME280;63447;49.446;8.666;2022-12-29T01:56:52;99924.75;;;11.64;66.69
74895;BME280;63447;49.446;8.666;2022-12-29T01:59:25;99899.31;;;11.59;67.09
74895;BME280;63447;49.446;8.666;2022-12-29T02:01:54;99903.34;;;11.49;68.72
74895;BME280;63447;49.446;8.666;2022-12-29T02:04:22;99925.84;;;11.35;69.73
74895;BME280;63447;49.446;8.666;2022-12-29T02:06:57;99905.38;;;11.24;72.06
74895;BME280;63447;49.446;8.666;2022-12-29T02:09:23;99893.66;;;11.03;72.51
74895;BME280;63447;49.446;8.666;2022-12-29T02:11:51;99903.22;;;11.05;73.41
74895;BME280;63447;49.446;8.666;2022-12-29T02:14:19;99915.97;;;10.98;74.14
74895;BME280;63447;49.446;8.666;2022-12-29T02:39:40;99902.84;;;11.19;72.32
74895;BME280;63447;49.446;8.666;2022-12-29T02:42:19;99914.22;;;11.17;72.73
74895;BME280;63447;49.446;8.666;2022-12-29T02:45:02;99905.75;;;11.10;73.51
74895;BME280;63447;49.446;8.666;2022-12-29T02:47:36;99897.13;;;11.12;72.94
74895;BME280;63447;49.446;8.666;2022-12-29T02:50:19;99904.78;;;11.18;72.68
74895;BME280;63447;49.446;8.666;2022-12-29T02:52:50;99891.38;;;11.17;72.41
74895;BME280;63447;49.446;8.666;2022-12-29T02:55:20;99882.03;;;11.09;71.96
74895;BME280;63447;49.446;8.666;2022-12-29T02:58:02;99888.09;;;11.27;71.70
74895;BME280;63447;49.446;8.666;2022-12-29T03:00:31;99880.28;;;11.29;71.44
74895;BME280;63447;49.446;8.666;2022-12-29T03:11:11;99884.88;;;11.25;71.46
74895;BME280;63447;49.446;8.666;2022-12-29T03:16:54;99859.91;;;11.34;71.06
74895;BME280;63447;49.446;8.666;2022-12-29T03:19:28;99845.66;;;11.19;71.34
74895;BME280;63447;49.446;8.666;2022-12-29T03:21:59;99862.78;;;11.25;71.43
74895;BME280;63447;49.446;8.666;2022-12-29T03:24:49;99848.41;;;11.32;70.80
74895;BME280;63447;49.446;8.666;2022-12-29T03:27:25;99840.94;;;11.20;71.18
74895;BME280;63447;49.446;8.666;2022-12-29T03:30:00;99843.22;;;11.30;70.60
74895;BME280;63447;49.446;8.666;2022-12-29T03:32:32;99831.03;;;11.19;71.49
74895;BME280;63447;49.446;8.666;2022-12-29T03:35:02;99828.84;;;11.25;71.20
74895;BME280;63447;49.446;8.666;2022-12-29T03:37:35;99825.38;;;11.28;70.79
74895;BME280;63447;49.446;8.666;2022-12-29T03:40:03;99824.31;;;11.04;72.13
74895;BME280;63447;49.446;8.666;2022-12-29T03:42:33;99814.53;;;10.95;72.10
74895;BME280;63447;49.446;8.666;2022-12-29T03:45:00;99814.41;;;11.03;72.36
74895;BME280;63447;49.446;8.666;2022-12-29T03:47:30;99809.25;;;11.02;71.99
74895;BME280;63447;49.446;8.666;2022-12-29T03:49:58;99806.13;;;11.03;71.34
74895;BME280;63447;49.446;8.666;2022-12-29T03:52:28;99807.16;;;10.99;72.21
74895;BME280;63447;49.446;8.666;2022-12-29T03:54:53;99823.63;;;10.95;71.40
74895;BME280;63447;49.446;8.666;2022-12-29T03:57:18;99770.41;;;10.82;71.49
74895;BME280;63447;49.446;8.666;2022-12-29T03:59:46;99783.13;;;10.99;71.24
74895;BME280;63447;49.446;8.666;2022-12-29T04:02:11;99782.88;;;11.04;71.19
74895;BME280;63447;49.446;8.666;2022-12-29T04:04:37;99779.78;;;11.06;71.05
74895;BME280;63447;49.446;8.666;2022-12-29T04:07:04;99777.13;;;11.09;71.10
74895;BME280;63447;49.446;8.666;2022-12-29T04:09:29;99774.16;;;11.02;70.44
74895;BME280;63447;49.446;8.666;2022-12-29T04:11:57;99770.81;;;11.09;70.91
74895;BME280;63447;49.446;8.666;2022-12-29T04:14:22;99767.94;;;11.05;70.26
74895;BME280;63447;49.446;8.666;2022-12-29T04:16:48;99760.00;;;11.04;70.41
74895;BME280;63447;49.446;8.666;2022-12-29T04:19:18;99768.78;;;11.21;69.84
74895;BME280;63447;49.446;8.666;2022-12-29T04:21:48;99755.03;;;11.09;69.83
74895;BME280;63447;49.446;8.666;2022-12-29T04:24:14;99760.81;;;11.04;70.15
74895;BME280;63447;49.446;8.666;2022-12-29T04:26:40;99768.03;;;11.09;70.04
74895;BME280;63447;49.446;8.666;2022-12-29T04:29:05;99758.03;;;11.04;69.33
74895;BME280;63447;49.446;8.666;2022-12-29T04:31:30;99758.03;;;11.16;68.67
74895;BME280;63447;49.446;8.666;2022-12-29T04:33:56;99760.41;;;11.18;68.71
74895;BME280;63447;49.446;8.666;2022-12-29T04:36:27;99765.56;;;11.19;68.08
74895;BME280;63447;49.446;8.666;2022-12-29T04:38:52;99774.53;;;11.29;68.25
74895;BME280;63447;49.446;8.666;2022-12-29T04:41:20;99761.28;;;11.34;68.04
74895;BME280;63447;49.446;8.666;2022-12-29T04:43:50;99762.56;;;11.25;68.34
74895;BME280;63447;49.446;8.666;2022-12-29T04:46:17;99763.69;;;11.36;66.93
74895;BME280;63447;49.446;8.666;2022-12-29T04:48:47;99751.03;;;11.35;67.16
74895;BME280;63447;49.446;8.666;2022-12-29T04:51:13;99761.84;;;11.40;67.25
74895;BME280;63447;49.446;8.666;2022-12-29T04:53:40;99766.66;;;11.43;67.11
74895;BME280;63447;49.446;8.666;2022-12-29T04:56:08;99767.72;;;11.38;67.29
74895;BME280;63447;49.446;8.666;2022-12-29T04:58:36;99754.25;;;11.37;66.74
74895;BME280;63447;49.446;8.666;2022-12-29T05:01:03;99765.47;;;11.44;66.41
74895;BME280;63447;49.446;8.666;2022-12-29T05:03:31;99766.91;;;11.38;66.82
74895;BME280;63447;49.446;8.666;2022-12-29T05:05:57;99768.06;;;11.37;66.54
74895;BME280;63447;49.446;8.666;2022-12-29T05:08:23;99782.69;;;11.37;66.73
74895;BME280;63447;49.446;8.666;2022-12-29T05:10:50;99776.91;;;11.42;65.95
74895;BME280;63447;49.446;8.666;2022-12-29T05:13:18;99770.28;;;11.47;65.78
74895;BME280;63447;49.446;8.666;2022-12-29T05:15:51;99769.69;;;11.53;65.49
74895;BME280;63447;49.446;8.666;2022-12-29T05:18:18;99781.97;;;11.68;64.84
74895;BME280;63447;49.446;8.666;2022-12-29T05:20:46;99786.53;;;11.48;65.61
74895;BME280;63447;49.446;8.666;2022-12-29T05:23:14;99776.28;;;11.49;65.03
74895;BME280;63447;49.446;8.666;2022-12-29T05:25:43;99778.69;;;11.50;65.89
74895;BME280;63447;49.446;8.666;2022-12-29T05:28:10;99777.88;;;11.50;65.37
74895;BME280;63447;49.446;8.666;2022-12-29T05:30:35;99795.13;;;11.59;65.45
74895;BME280;63447;49.446;8.666;2022-12-29T05:33:05;99783.25;;;11.59;64.95
74895;BME280;63447;49.446;8.666;2022-12-29T05:35:33;99778.38;;;11.68;64.60
74895;BME280;63447;49.446;8.666;2022-12-29T05:38:00;99781.56;;;11.54;64.87
74895;BME280;63447;49.446;8.666;2022-12-29T05:40:25;99790.16;;;11.65;64.89
74895;BME280;63447;49.446;8.666;2022-12-29T05:42:53;99782.09;;;11.60;64.61
74895;BME280;63447;49.446;8.666;2022-12-29T05:45:21;99789.38;;;11.52;64.84
74895;BME280;63447;49.446;8.666;2022-12-29T05:47:48;99780.75;;;11.53;64.83
74895;BME280;63447;49.446;8.666;2022-12-29T05:50:16;99752.22;;;11.49;64.56
74895;BME280;63447;49.446;8.666;2022-12-29T05:52:41;99774.63;;;11.60;64.69
74895;BME280;63447;49.446;8.666;2022-12-29T05:55:09;99776.28;;;11.49;65.04
74895;BME280;63447;49.446;8.666;2022-12-29T05:57:37;99769.84;;;11.45;65.17
74895;BME280;63447;49.446;8.666;2022-12-29T06:00:06;99776.81;;;11.54;65.08
74895;BME280;63447;49.446;8.666;2022-12-29T06:02:34;99764.72;;;11.59;64.57
74895;BME280;63447;49.446;8.666;2022-12-29T06:05:02;99773.16;;;11.50;65.55
74895;BME280;63447;49.446;8.666;2022-12-29T06:07:27;99768.38;;;11.63;65.02
74895;BME280;63447;49.446;8.666;2022-12-29T06:09:53;99760.34;;;11.58;65.37
74895;BME280;63447;49.446;8.666;2022-12-29T06:12:18;99764.78;;;11.47;65.55
74895;BME280;63447;49.446;8.666;2022-12-29T06:14:45;99754.25;;;11.37;65.95
74895;BME280;63447;49.446;8.666;2022-12-29T06:17:11;99757.47;;;11.39;65.50
74895;BME280;63447;49.446;8.666;2022-12-29T06:19:36;99737.69;;;11.37;65.69
74895;BME280;63447;49.446;8.666;2022-12-29T06:22:01;99739.19;;;11.34;65.94
74895;BME280;63447;49.446;8.666;2022-12-29T06:24:29;99747.94;;;11.52;65.14
74895;BME280;63447;49.446;8.666;2022-12-29T06:26:57;99748.19;;;11.47;65.24
74895;BME280;63447;49.446;8.666;2022-12-29T06:29:22;99748.53;;;11.45;65.37
74895;BME280;63447;49.446;8.666;2022-12-29T06:31:47;99746.41;;;11.39;65.30
74895;BME280;63447;49.446;8.666;2022-12-29T06:34:14;99754.25;;;11.37;64.95
74895;BME280;63447;49.446;8.666;2022-12-29T06:36:39;99730.00;;;11.30;65.18
74895;BME280;63447;49.446;8.666;2022-12-29T06:39:08;99735.16;;;11.32;65.16
74895;BME280;63447;49.446;8.666;2022-12-29T06:41:33;99742.50;;;11.40;65.24
74895;BME280;63447;49.446;8.666;2022-12-29T06:44:03;99741.88;;;11.46;64.68
74895;BME280;63447;49.446;8.666;2022-12-29T06:46:28;99740.88;;;11.39;65.35
74895;BME280;63447;49.446;8.666;2022-12-29T06:48:58;99740.44;;;11.37;64.75
74895;BME280;63447;49.446;8.666;2022-12-29T06:51:25;99748.03;;;11.40;65.22
74895;BME280;63447;49.446;8.666;2022-12-29T06:53:53;99748.09;;;11.43;64.64
74895;BME280;63447;49.446;8.666;2022-12-29T06:56:18;99751.75;;;11.47;64.93
74895;BME280;63447;49.446;8.666;2022-12-29T06:58:46;99753.72;;;11.47;64.43
74895;BME280;63447;49.446;8.666;2022-12-29T07:01:14;99749.00;;;11.47;64.37
74895;BME280;63447;49.446;8.666;2022-12-29T07:03:41;99752.66;;;11.51;64.61
74895;BME280;63447;49.446;8.666;2022-12-29T07:06:12;99734.84;;;11.49;64.12
74895;BME280;63447;49.446;8.666;2022-12-29T07:08:40;99741.16;;;11.49;64.68
74895;BME280;63447;49.446;8.666;2022-12-29T07:11:10;99742.94;;;11.42;64.26
74895;BME280;63447;49.446;8.666;2022-12-29T07:13:40;99739.09;;;11.46;64.29
74895;BME280;63447;49.446;8.666;2022-12-29T07:16:08;99736.91;;;11.52;63.91
74895;BME280;63447;49.446;8.666;2022-12-29T07:18:37;99753.41;;;11.64;63.67
74895;BME280;63447;49.446;8.666;2022-12-29T07:21:02;99748.41;;;11.54;64.29
74895;BME280;63447;49.446;8.666;2022-12-29T07:23:31;99744.84;;;11.53;64.31
74895;BME280;63447;49.446;8.666;2022-12-29T07:26:03;99755.03;;;11.65;63.55
74895;BME280;63447;49.446;8.666;2022-12-29T07:28:29;99749.75;;;11.60;63.81
74895;BME280;63447;49.446;8.666;2022-12-29T07:30:54;99747.50;;;11.50;64.03
74895;BME280;63447;49.446;8.666;2022-12-29T07:33:22;99765.06;;;11.57;64.03
74895;BME280;63447;49.446;8.666;2022-12-29T07:35:47;99760.34;;;11.58;63.67
74895;BME280;63447;49.446;8.666;2022-12-29T07:38:13;99766.44;;;11.64;63.42
74895;BME280;63447;49.446;8.666;2022-12-29T07:40:42;99750.25;;;11.50;63.61
74895;BME280;63447;49.446;8.666;2022-12-29T07:43:07;99762.88;;;11.63;63.34
74895;BME280;63447;49.446;8.666;2022-12-29T07:45:33;99759.19;;;11.59;63.46
74895;BME280;63447;49.446;8.666;2022-12-29T07:47:58;99748.66;;;11.49;63.56
74895;BME280;63447;49.446;8.666;2022-12-29T07:50:23;99754.13;;;11.61;62.76
74895;BME280;63447;49.446;8.666;2022-12-29T07:52:51;99765.44;;;11.72;62.76
74895;BME280;63447;49.446;8.666;2022-12-29T07:55:16;99774.19;;;11.74;62.92
74895;BME280;63447;49.446;8.666;2022-12-29T07:57:42;99769.81;;;11.73;63.06
74895;BME280;63447;49.446;8.666;2022-12-29T08:00:08;99760.66;;;11.69;62.75
74895;BME280;63447;49.446;8.666;2022-12-29T08:02:39;99768.78;;;11.77;62.55
74895;BME280;63447;49.446;8.666;2022-12-29T08:05:05;99761.88;;;11.71;62.71
74895;BME280;63447;49.446;8.666;2022-12-29T08:07:30;99768.50;;;11.67;62.60
74895;BME280;63447;49.446;8.666;2022-12-29T08:09:58;99786.28;;;11.81;62.42
74895;BME280;63447;49.446;8.666;2022-12-29T08:12:23;99770.25;;;11.75;62.30
74895;BME280;63447;49.446;8.666;2022-12-29T08:14:48;99774.50;;;11.84;62.06
74895;BME280;63447;49.446;8.666;2022-12-29T08:17:14;99781.09;;;11.80;62.09
74895;BME280;63447;49.446;8.666;2022-12-29T08:19:41;99769.47;;;11.74;62.30
74895;BME280;63447;49.446;8.666;2022-12-29T08:22:07;99789.13;;;11.85;61.97
74895;BME280;63447;49.446;8.666;2022-12-29T08:24:35;99806.28;;;11.91;61.74
74895;BME280;63447;49.446;8.666;2022-12-29T08:27:03;99766.19;;;11.69;62.02
74895;BME280;63447;49.446;8.666;2022-12-29T08:29:30;99805.97;;;11.96;61.80
74895;BME280;63447;49.446;8.666;2022-12-29T08:31:56;99811.34;;;12.04;61.62
74895;BME280;63447;49.446;8.666;2022-12-29T08:34:24;99797.63;;;11.92;62.14
74895;BME280;63447;49.446;8.666;2022-12-29T08:36:52;99796.28;;;11.86;61.60
74895;BME280;63447;49.446;8.666;2022-12-29T08:39:17;99805.97;;;11.96;61.51
74895;BME280;63447;49.446;8.666;2022-12-29T08:41:45;99786.72;;;11.83;61.12
74895;BME280;63447;49.446;8.666;2022-12-29T08:44:12;99819.31;;;12.06;60.91
74895;BME280;63447;49.446;8.666;2022-12-29T08:46:42;99819.03;;;11.95;61.17
74895;BME280;63447;49.446;8.666;2022-12-29T08:49:08;99816.69;;;11.97;61.41
74895;BME280;63447;49.446;8.666;2022-12-29T08:51:38;99819.09;;;11.99;61.66
74895;BME280;63447;49.446;8.666;2022-12-29T08:54:04;99819.94;;;12.15;60.53
74895;BME280;63447;49.446;8.666;2022-12-29T08:56:29;99805.75;;;12.16;60.46
74895;BME280;63447;49.446;8.666;2022-12-29T08:58:55;99827.25;;;12.23;60.62
74895;BME280;63447;49.446;8.666;2022-12-29T09:01:22;99821.56;;;12.16;61.04
74895;BME280;63447;49.446;8.666;2022-12-29T09:03:48;99807.44;;;12.05;60.01
74895;BME280;63447;49.446;8.666;2022-12-29T09:06:17;99808.34;;;12.09;60.92
74895;BME280;63447;49.446;8.666;2022-12-29T09:08:46;99821.19;;;12.17;60.56
74895;BME280;63447;49.446;8.666;2022-12-29T09:11:17;99826.97;;;12.12;61.27
74895;BME280;63447;49.446;8.666;2022-12-29T09:13:45;99827.94;;;12.04;61.32
74895;BME280;63447;49.446;8.666;2022-12-29T09:16:14;99819.50;;;12.13;61.15
74895;BME280;63447;49.446;8.666;2022-12-29T09:18:42;99812.81;;;12.14;61.04
74895;BME280;63447;49.446;8.666;2022-12-29T09:21:09;99831.34;;;12.13;61.23
74895;BME280;63447;49.446;8.666;2022-12-29T09:23:38;99840.91;;;12.16;60.73
74895;BME280;63447;49.446;8.666;2022-12-29T09:26:03;99843.94;;;12.11;60.96
74895;BME280;63447;49.446;8.666;2022-12-29T09:28:37;99839.91;;;12.08;61.29
74895;BME280;63447;49.446;8.666;2022-12-29T09:31:04;99836.00;;;12.09;61.31
74895;BME280;63447;49.446;8.666;2022-12-29T09:33:32;99835.09;;;12.05;61.39
74895;BME280;63447;49.446;8.666;2022-12-29T09:36:00;99859.47;;;12.15;61.21
74895;BME280;63447;49.446;8.666;2022-12-29T09:38:29;99856.41;;;12.05;61.96
74895;BME280;63447;49.446;8.666;2022-12-29T09:44:08;99851.69;;;12.05;62.70
74895;BME280;63447;49.446;8.666;2022-12-29T09:46:44;99869.09;;;12.21;62.19
74895;BME280;63447;49.446;8.666;2022-12-29T09:49:37;99862.22;;;12.15;63.11
74895;BME280;63447;49.446;8.666;2022-12-29T09:52:13;99877.66;;;12.16;63.72
74895;BME280;63447;49.446;8.666;2022-12-29T09:54:51;99860.06;;;12.09;64.41
74895;BME280;63447;49.446;8.666;2022-12-29T09:59:54;99887.84;;;12.28;64.88
74895;BME280;63447;49.446;8.666;2022-12-29T10:02:32;99873.66;;;12.30;65.37
74895;BME280;63447;49.446;8.666;2022-12-29T10:05:02;99873.38;;;12.19;65.99
74895;BME280;63447;49.446;8.666;2022-12-29T10:10:27;99882.41;;;12.16;66.47
74895;BME280;63447;49.446;8.666;2022-12-29T10:13:06;99888.19;;;12.27;66.22
74895;BME280;63447;49.446;8.666;2022-12-29T10:15:54;99874.72;;;12.25;66.01
74895;BME280;63447;49.446;8.666;2022-12-29T10:18:40;99877.78;;;12.36;66.06
74895;BME280;63447;49.446;8.666;2022-12-29T10:24:02;99877.41;;;12.37;66.08
74895;BME280;63447;49.446;8.666;2022-12-29T10:26:36;99891.34;;;12.41;66.48
74895;BME280;63447;49.446;8.666;2022-12-29T10:31:44;99878.84;;;12.31;66.64
74895;BME280;63447;49.446;8.666;2022-12-29T10:34:21;99870.09;;;12.29;66.35
74895;BME280;63447;49.446;8.666;2022-12-29T10:37:08;99874.19;;;12.35;66.22
74895;BME280;63447;49.446;8.666;2022-12-29T10:39:45;99873.66;;;12.30;65.90
74895;BME280;63447;49.446;8.666;2022-12-29T10:44:38;99867.94;;;12.22;65.24
74895;BME280;63447;49.446;8.666;2022-12-29T10:47:12;99870.63;;;12.35;65.21
74895;BME280;63447;49.446;8.666;2022-12-29T10:49:42;99871.94;;;12.25;65.67
74895;BME280;63447;49.446;8.666;2022-12-29T10:52:13;99875.25;;;12.31;65.61
74895;BME280;63447;49.446;8.666;2022-12-29T10:57:36;99879.53;;;12.28;65.26
74895;BME280;63447;49.446;8.666;2022-12-29T11:00:13;99870.09;;;12.29;64.70
74895;BME280;63447;49.446;8.666;2022-12-29T11:07:59;99885.91;;;12.44;64.30
74895;BME280;63447;49.446;8.666;2022-12-29T11:15:56;99882.09;;;15.26;55.41
74895;BME280;63447;49.446;8.666;2022-12-29T11:20:57;99887.56;;;16.97;50.33
74895;BME280;63447;49.446;8.666;2022-12-29T11:26:16;99879.50;;;18.44;46.73
74895;BME280;63447;49.446;8.666;2022-12-29T11:28:45;99870.63;;;18.03;47.36
74895;BME280;63447;49.446;8.666;2022-12-29T11:31:21;99877.38;;;15.30;53.45
74895;BME280;63447;49.446;8.666;2022-12-29T11:33:47;99876.44;;;14.70;55.45
74895;BME280;63447;49.446;8.666;2022-12-29T11:36:21;99892.69;;;14.03;57.62
74895;BME280;63447;49.446;8.666;2022-12-29T11:38:54;99877.84;;;13.56;59.05
74895;BME280;63447;49.446;8.666;2022-12-29T11:41:25;99890.66;;;13.26;60.68
74895;BME280;63447;49.446;8.666;2022-12-29T11:43:55;99899.28;;;12.89;61.58
74895;BME280;63447;49.446;8.666;2022-12-29T11:46:27;99880.78;;;12.78;61.99
74895;BME280;63447;49.446;8.666;2022-12-29T11:48:54;99900.81;;;12.71;63.05
74895;BME280;63447;49.446;8.666;2022-12-29T11:51:26;99889.53;;;12.80;62.71
74895;BME280;63447;49.446;8.666;2022-12-29T11:53:57;99882.50;;;12.67;62.78
74895;BME280;63447;49.446;8.666;2022-12-29T11:56:41;99875.91;;;12.71;62.54
74895;BME280;63447;49.446;8.666;2022-12-29T12:02:14;99873.75;;;12.65;62.31
74895;BME280;63447;49.446;8.666;2022-12-29T12:04:44;99882.06;;;12.65;62.01
74895;BME280;63447;49.446;8.666;2022-12-29T12:07:44;99882.25;;;12.72;61.34
74895;BME280;63447;49.446;8.666;2022-12-29T12:10:21;99880.09;;;12.65;60.92
74895;BME280;63447;49.446;8.666;2022-12-29T12:13:03;99880.28;;;12.56;61.30
74895;BME280;63447;49.446;8.666;2022-12-29T12:20:57;99879.88;;;12.27;63.92
74895;BME280;63447;49.446;8.666;2022-12-29T12:23:41;99884.56;;;12.38;63.18
74895;BME280;63447;49.446;8.666;2022-12-29T12:28:51;99885.53;;;12.62;62.65
74895;BME280;63447;49.446;8.666;2022-12-29T12:31:28;99892.41;;;12.83;62.60
74895;BME280;63447;49.446;8.666;2022-12-29T12:34:09;99868.09;;;12.77;61.62
74895;BME280;63447;49.446;8.666;2022-12-29T12:39:43;99860.19;;;12.60;62.10
74895;BME280;63447;49.446;8.666;2022-12-29T12:59:44;99863.34;;;11.99;65.86
74895;BME280;63447;49.446;8.666;2022-12-29T13:05:16;99854.44;;;12.05;63.48
74895;BME280;63447;49.446;8.666;2022-12-29T13:10:40;99865.31;;;11.98;65.15
74895;BME280;63447;49.446;8.666;2022-12-29T13:16:01;99870.19;;;12.17;65.13
74895;BME280;63447;49.446;8.666;2022-12-29T13:29:39;99864.91;;;12.12;65.12
74895;BME280;63447;49.446;8.666;2022-12-29T13:34:56;99854.78;;;11.76;66.03
74895;BME280;63447;49.446;8.666;2022-12-29T13:37:29;99872.06;;;11.73;67.78
74895;BME280;63447;49.446;8.666;2022-12-29T13:40:02;99854.22;;;11.82;66.94
74895;BME280;63447;49.446;8.666;2022-12-29T13:42:29;99845.41;;;11.65;67.25
74895;BME280;63447;49.446;8.666;2022-12-29T13:44:59;99850.63;;;11.54;67.91
74895;BME280;63447;49.446;8.666;2022-12-29T13:47:28;99857.16;;;11.62;67.84
74895;BME280;63447;49.446;8.666;2022-12-29T13:49:57;99853.69;;;11.65;68.46
74895;BME280;63447;49.446;8.666;2022-12-29T14:00:31;99863.19;;;11.51;67.41
74895;BME280;63447;49.446;8.666;2022-12-29T14:05:33;99846.19;;;11.37;66.98
74895;BME280;63447;49.446;8.666;2022-12-29T14:08:04;99854.09;;;11.51;67.56
74895;BME280;63447;49.446;8.666;2022-12-29T14:10:38;99868.25;;;11.49;67.94
74895;BME280;63447;49.446;8.666;2022-12-29T14:13:13;99881.13;;;11.57;67.46
74895;BME280;63447;49.446;8.666;2022-12-29T14:15:44;99873.72;;;11.34;68.14
74895;BME280;63447;49.446;8.666;2022-12-29T14:18:26;99904.34;;;11.29;69.20
74895;BME280;63447;49.446;8.666;2022-12-29T14:21:37;99874.00;;;11.04;69.03
74895;BME280;63447;49.446;8.666;2022-12-29T14:23:47;99893.31;;;11.16;69.11
74895;BME280;63447;49.446;8.666;2022-12-29T14:26:17;99899.31;;;11.06;68.91
74895;BME280;63447;49.446;8.666;2022-12-29T14:28:45;99891.25;;;11.01;69.17
74895;BME280;63447;49.446;8.666;2022-12-29T14:33:40;99910.34;;;11.06;68.77
74895;BME280;63447;49.446;8.666;2022-12-29T14:38:48;99927.84;;;10.86;70.60
74895;BME280;63447;49.446;8.666;2022-12-29T14:43:55;99927.13;;;10.65;72.05
74895;BME280;63447;49.446;8.666;2022-12-29T14:46:22;99919.03;;;10.35;73.08
74895;BME280;63447;49.446;8.666;2022-12-29T14:48:52;99929.59;;;10.33;74.29
74895;BME280;63447;49.446;8.666;2022-12-29T14:51:40;99904.31;;;9.98;77.25
74895;BME280;63447;49.446;8.666;2022-12-29T14:54:48;99927.22;;;10.11;76.88
74895;BME280;63447;49.446;8.666;2022-12-29T14:57:33;99936.72;;;10.01;77.67
74895;BME280;63447;49.446;8.666;2022-12-29T15:05:43;99942.88;;;9.98;78.10
74895;BME280;63447;49.446;8.666;2022-12-29T15:08:13;99935.50;;;9.90;78.85
74895;BME280;63447;49.446;8.666;2022-12-29T15:13:23;99922.34;;;9.75;78.84
74895;BME280;63447;49.446;8.666;2022-12-29T15:15:50;99946.63;;;9.81;79.44
74895;BME280;63447;49.446;8.666;2022-12-29T15:18:29;99923.50;;;9.74;80.29
74895;BME280;63447;49.446;8.666;2022-12-29T15:21:00;99909.19;;;9.80;80.10
74895;BME280;63447;49.446;8.666;2022-12-29T15:23:31;99909.66;;;9.82;82.24
74895;BME280;63447;49.446;8.666;2022-12-29T15:26:01;99906.91;;;9.62;82.29
74895;BME280;63447;49.446;8.666;2022-12-29T15:28:40;99918.53;;;9.67;83.21
74895;BME280;63447;49.446;8.666;2022-12-29T15:31:30;99922.84;;;9.56;83.14
74895;BME280;63447;49.446;8.666;2022-12-29T15:34:11;99939.19;;;9.61;82.89
74895;BME280;63447;49.446;8.666;2022-12-29T15:36:38;99946.81;;;9.56;82.81
74895;BME280;63447;49.446;8.666;2022-12-29T15:39:27;99961.13;;;9.49;82.67
74895;BME280;63447;49.446;8.666;2022-12-29T15:42:01;99950.38;;;9.35;83.47
74895;BME280;63447;49.446;8.666;2022-12-29T15:44:32;99966.34;;;9.42;84.91
74895;BME280;63447;49.446;8.666;2022-12-29T15:47:16;99959.41;;;9.36;83.55
74895;BME280;63447;49.446;8.666;2022-12-29T15:49:44;99943.50;;;9.21;84.07
74895;BME280;63447;49.446;8.666;2022-12-29T15:52:17;99963.34;;;9.35;84.24